createdAt,value
2022-09-26T00:02:33.895Z,11.30
2022-09-26T00:05:40.272Z,10.67
2022-09-26T00:08:48.245Z,12.13
2022-09-26T00:11:54.277Z,11.93
2022-09-26T00:15:03.492Z,11.43
2022-09-26T00:18:09.261Z,10.33
2022-09-26T00:21:17.882Z,11.70
2022-09-26T00:24:23.525Z,11.10
2022-09-26T00:27:30.708Z,11.23
2022-09-26T00:30:39.479Z,10.83
2022-09-26T00:33:46.046Z,11.30
2022-09-26T00:36:52.865Z,11.53
2022-09-26T00:39:59.432Z,12.07
2022-09-26T00:43:06.435Z,11.20
2022-09-26T00:46:26.030Z,10.93
2022-09-26T00:49:34.798Z,10.87
2022-09-26T00:52:46.159Z,10.93
2022-09-26T00:55:55.836Z,11.80
2022-09-26T00:59:08.605Z,10.80
2022-09-26T01:02:17.748Z,11.17
2022-09-26T01:05:26.916Z,11.60
2022-09-26T01:08:44.753Z,11.40
2022-09-26T01:11:51.592Z,11.07
2022-09-26T01:15:00.065Z,11.03
2022-09-26T01:18:10.997Z,11.70
2022-09-26T01:21:49.888Z,10.03
2022-09-26T01:25:09.397Z,10.00
2022-09-26T01:28:33.683Z,11.00
2022-09-26T01:32:12.938Z,11.00
2022-09-26T01:35:40.577Z,10.40
2022-09-26T01:38:59.376Z,9.83
2022-09-26T01:42:18.206Z,10.07
2022-09-26T01:45:32.078Z,9.87
2022-09-26T01:48:48.545Z,9.23
2022-09-26T01:52:00.026Z,9.53
2022-09-26T01:55:14.180Z,10.03
2022-09-26T01:58:26.124Z,9.57
2022-09-26T02:01:37.437Z,9.40
2022-09-26T02:04:50.582Z,9.63
2022-09-26T02:08:01.096Z,9.73
2022-09-26T02:11:13.939Z,9.50
2022-09-26T02:14:24.351Z,9.67
2022-09-26T02:17:36.595Z,9.30
2022-09-26T02:20:48.807Z,9.87
2022-09-26T02:23:56.551Z,9.00
2022-09-26T02:27:03.198Z,8.90
2022-09-26T02:30:10.734Z,10.03
2022-09-26T02:33:17.355Z,8.70
2022-09-26T02:36:27.295Z,9.87
2022-09-26T02:39:33.361Z,8.93
2022-09-26T02:42:55.317Z,9.57
2022-09-26T02:46:10.987Z,9.80
2022-09-26T02:49:31.673Z,8.27
2022-09-26T02:52:53.988Z,9.10
2022-09-26T02:56:17.542Z,8.97
2022-09-26T02:59:30.089Z,9.10
2022-09-26T03:02:42.182Z,9.33
2022-09-26T03:05:56.683Z,9.93
2022-09-26T03:09:07.947Z,10.07
2022-09-26T03:12:14.704Z,9.90
2022-09-26T03:15:24.590Z,10.53
2022-09-26T03:18:37.230Z,9.90
2022-09-26T03:21:47.534Z,9.40
2022-09-26T03:24:56.292Z,9.37
2022-09-26T03:28:03.892Z,9.20
2022-09-26T03:31:10.390Z,9.87
2022-09-26T03:34:30.546Z,9.70
2022-09-26T03:37:37.484Z,9.83
2022-09-26T03:40:47.594Z,10.07
2022-09-26T03:44:22.538Z,10.03
2022-09-26T03:47:47.705Z,10.63
2022-09-26T03:50:54.622Z,10.07
2022-09-26T03:54:01.270Z,11.90
2022-09-26T03:57:10.785Z,11.87
2022-09-26T04:00:21.948Z,11.20
2022-09-26T04:03:28.047Z,11.33
2022-09-26T04:06:34.675Z,12.03
2022-09-26T04:09:41.161Z,11.73
2022-09-26T04:12:50.552Z,12.07
2022-09-26T04:15:58.701Z,12.17
2022-09-26T04:19:06.867Z,10.93
2022-09-26T04:22:14.137Z,11.47
2022-09-26T04:25:23.851Z,12.77
2022-09-26T04:28:32.291Z,12.70
2022-09-26T04:31:39.621Z,11.73
2022-09-26T04:34:50.996Z,10.47
2022-09-26T04:37:57.495Z,10.90
2022-09-26T04:41:08.325Z,12.50
2022-09-26T04:44:18.079Z,11.53
2022-09-26T04:47:23.690Z,12.33
2022-09-26T04:50:59.695Z,12.20
2022-09-26T04:54:07.176Z,13.30
2022-09-26T04:57:19.830Z,13.53
2022-09-26T05:00:28.707Z,12.63
2022-09-26T05:03:42.247Z,11.73
2022-09-26T05:06:48.016Z,12.47
2022-09-26T05:10:04.221Z,12.70
2022-09-26T05:13:10.747Z,11.67
2022-09-26T05:16:20.338Z,12.13
2022-09-26T05:19:28.341Z,11.70
2022-09-26T05:22:55.605Z,12.17
2022-09-26T05:26:17.460Z,11.70
2022-09-26T05:29:24.647Z,11.73
2022-09-26T05:32:37.724Z,11.20
2022-09-26T05:35:46.283Z,12.07
2022-09-26T05:38:53.988Z,10.97
2022-09-26T05:41:59.619Z,11.13
2022-09-26T05:45:06.922Z,11.60
2022-09-26T05:48:16.493Z,10.13
2022-09-26T05:51:23.776Z,11.30
2022-09-26T05:54:30.489Z,11.07
2022-09-26T05:57:37.496Z,10.87
2022-09-26T06:00:44.055Z,11.53
2022-09-26T06:03:52.541Z,10.00
2022-09-26T06:07:06.705Z,10.37
2022-09-26T06:10:12.459Z,11.37
2022-09-26T06:13:40.624Z,10.73
2022-09-26T06:16:46.612Z,10.77
2022-09-26T06:19:56.633Z,10.53
2022-09-26T06:23:04.297Z,10.97
2022-09-26T06:26:16.367Z,11.13
2022-09-26T06:29:22.049Z,10.93
2022-09-26T06:32:29.574Z,10.50
2022-09-26T06:36:09.461Z,11.07
2022-09-26T06:39:17.125Z,10.80
2022-09-26T06:42:25.524Z,11.70
2022-09-26T06:45:57.999Z,10.47
2022-09-26T06:49:20.021Z,11.07
2022-09-26T06:52:35.123Z,10.03
2022-09-26T06:55:41.799Z,10.77
2022-09-26T06:58:49.999Z,11.70
2022-09-26T07:01:58.938Z,10.53
2022-09-26T07:05:27.785Z,11.00
2022-09-26T07:09:00.796Z,10.33
2022-09-26T07:12:25.361Z,11.93
2022-09-26T07:15:33.696Z,12.67
2022-09-26T07:18:45.129Z,11.40
2022-09-26T07:21:58.540Z,10.93
2022-09-26T07:25:13.262Z,9.87
2022-09-26T07:28:19.367Z,11.17
2022-09-26T07:31:28.195Z,10.70
2022-09-26T07:34:46.569Z,10.00
2022-09-26T07:37:55.252Z,10.90
2022-09-26T07:41:08.803Z,10.70
2022-09-26T07:45:09.713Z,10.73
2022-09-26T07:47:56.764Z,10.40
2022-09-26T07:51:31.102Z,10.37
2022-09-26T07:54:38.153Z,9.60
2022-09-26T07:58:08.704Z,8.67
2022-09-26T08:01:16.758Z,7.63
2022-09-26T08:04:49.203Z,6.73
2022-09-26T08:07:57.572Z,7.60
2022-09-26T08:11:23.420Z,7.97
2022-09-26T08:14:53.155Z,8.20
2022-09-26T08:18:20.237Z,7.40
2022-09-26T08:21:25.970Z,8.03
2022-09-26T08:24:36.264Z,8.53
2022-09-26T08:27:59.670Z,7.40
2022-09-26T08:31:11.737Z,7.93
2022-09-26T08:34:21.330Z,7.63
2022-09-26T08:37:51.153Z,7.40
2022-09-26T08:41:33.017Z,7.00
2022-09-26T08:45:47.508Z,7.30
2022-09-26T08:49:35.379Z,7.77
2022-09-26T08:52:45.822Z,7.33
2022-09-26T08:55:53.897Z,7.30
2022-09-26T08:59:06.076Z,7.63
2022-09-26T09:02:21.568Z,7.03
2022-09-26T09:05:39.891Z,8.20
2022-09-26T09:08:49.674Z,8.27
2022-09-26T09:12:15.076Z,8.50
2022-09-26T09:15:35.394Z,9.10
2022-09-26T09:19:16.967Z,8.40
2022-09-26T09:23:04.264Z,8.60
2022-09-26T09:30:16.640Z,7.97
2022-09-26T09:33:46.373Z,8.73
2022-09-26T09:37:22.848Z,7.93
2022-09-26T09:41:07.010Z,8.20
2022-09-26T09:44:28.325Z,7.57
2022-09-26T09:47:40.682Z,8.87
2022-09-26T09:50:54.813Z,8.63
2022-09-26T09:54:32.201Z,10.30
2022-09-26T09:57:55.446Z,10.30
2022-09-26T10:01:10.840Z,10.83
2022-09-26T10:04:37.742Z,8.77
2022-09-26T10:07:45.270Z,7.80
2022-09-26T10:11:23.321Z,6.87
2022-09-26T10:14:47.915Z,6.37
2022-09-26T10:18:26.685Z,6.40
2022-09-26T10:21:44.991Z,6.57
2022-09-26T10:24:51.209Z,6.20
2022-09-26T10:28:03.413Z,6.67
2022-09-26T10:31:14.536Z,6.27
2022-09-26T10:34:42.996Z,6.47
2022-09-26T10:37:53.711Z,7.47
2022-09-26T10:40:59.942Z,8.53
2022-09-26T10:44:08.372Z,7.90
2022-09-26T10:47:37.744Z,5.27
2022-09-26T10:51:13.618Z,6.03
2022-09-26T10:54:42.053Z,5.00
2022-09-26T10:57:53.369Z,4.60
2022-09-26T11:01:03.773Z,4.60
2022-09-26T11:04:41.209Z,4.43
2022-09-26T11:08:11.991Z,4.50
2022-09-26T11:11:43.290Z,4.40
2022-09-26T11:14:53.393Z,3.80
2022-09-26T11:17:59.664Z,4.10
2022-09-26T11:21:31.688Z,3.77
2022-09-26T11:24:46.835Z,3.53
2022-09-26T11:28:01.233Z,4.00
2022-09-26T11:31:29.959Z,4.07
2022-09-26T11:35:07.197Z,4.37
2022-09-26T11:38:31.340Z,4.10
2022-09-26T11:41:51.390Z,3.77
2022-09-26T11:45:00.991Z,3.67
2022-09-26T11:49:04.226Z,3.23
2022-09-26T11:52:49.218Z,3.23
2022-09-26T11:56:16.053Z,2.90
2022-09-26T11:59:39.186Z,2.93
2022-09-26T12:03:26.585Z,2.40
2022-09-26T12:06:35.975Z,2.50
2022-09-26T12:09:56.397Z,2.53
2022-09-26T12:13:16.574Z,2.50
2022-09-26T12:16:29.651Z,2.80
2022-09-26T12:19:45.222Z,2.77
2022-09-26T12:22:59.273Z,2.40
2022-09-26T12:26:17.257Z,3.43
2022-09-26T12:29:45.378Z,3.40
2022-09-26T12:33:21.952Z,3.03
2022-09-26T12:36:47.637Z,3.17
2022-09-26T12:40:10.372Z,2.60
2022-09-26T12:43:47.541Z,2.80
2022-09-26T12:47:21.412Z,2.50
2022-09-26T12:50:39.890Z,2.10
2022-09-26T12:53:55.833Z,2.53
2022-09-26T12:57:09.903Z,2.50
2022-09-26T13:00:21.745Z,2.40
2022-09-26T13:03:47.936Z,2.73
2022-09-26T13:07:19.334Z,2.63
2022-09-26T13:10:41.103Z,2.60
2022-09-26T13:14:15.035Z,2.50
2022-09-26T13:17:24.326Z,3.00
2022-09-26T13:20:38.247Z,2.80
2022-09-26T13:23:54.052Z,2.57
2022-09-26T13:27:09.337Z,2.27
2022-09-26T13:30:24.460Z,2.30
2022-09-26T13:33:36.873Z,2.07
2022-09-26T13:36:48.186Z,2.20
2022-09-26T13:40:03.705Z,2.20
2022-09-26T13:43:23.804Z,2.57
2022-09-26T13:46:40.135Z,2.57
2022-09-26T13:49:59.062Z,2.27
2022-09-26T13:53:21.525Z,2.73
2022-09-26T13:56:44.236Z,2.53
2022-09-26T13:59:55.425Z,2.90
2022-09-26T14:03:17.473Z,3.00
2022-09-26T14:07:28.586Z,3.10
2022-09-26T14:10:39.407Z,3.00
2022-09-26T14:13:44.980Z,3.03
2022-09-26T14:16:53.220Z,3.10
2022-09-26T14:20:05.140Z,2.67
2022-09-26T14:23:38.613Z,3.00
2022-09-26T14:26:47.743Z,2.90
2022-09-26T14:29:56.488Z,3.87
2022-09-26T14:33:06.315Z,2.97
2022-09-26T14:36:38.038Z,3.30
2022-09-26T14:39:47.033Z,3.30
2022-09-26T14:43:03.319Z,4.03
2022-09-26T14:46:20.664Z,3.73
2022-09-26T14:49:31.326Z,3.70
2022-09-26T14:52:40.038Z,4.07
2022-09-26T14:55:59.344Z,3.80
2022-09-26T14:59:42.572Z,3.80
2022-09-26T15:02:50.614Z,3.97
2022-09-26T15:05:56.434Z,4.20
2022-09-26T15:09:12.574Z,4.20
2022-09-26T15:12:25.427Z,3.83
2022-09-26T15:15:59.371Z,3.87
2022-09-26T15:19:14.228Z,4.27
2022-09-26T15:22:23.961Z,4.90
2022-09-26T15:25:35.787Z,5.70
2022-09-26T15:28:42.436Z,3.50
2022-09-26T15:31:51.486Z,2.93
2022-09-26T15:34:59.140Z,2.93
2022-09-26T15:38:07.126Z,3.13
2022-09-26T15:41:38.230Z,2.70
2022-09-26T15:44:51.218Z,2.97
2022-09-26T15:48:03.355Z,2.63
2022-09-26T15:51:19.283Z,3.10
2022-09-26T15:54:31.387Z,3.80
2022-09-26T15:57:37.289Z,3.80
2022-09-26T16:00:47.759Z,3.87
2022-09-26T16:04:06.265Z,2.90
2022-09-26T16:07:21.925Z,3.10
2022-09-26T16:10:31.361Z,3.30
2022-09-26T16:13:43.130Z,3.60
2022-09-26T16:16:48.885Z,3.80
2022-09-26T16:20:00.519Z,3.10
2022-09-26T16:23:07.679Z,3.50
2022-09-26T16:26:25.042Z,3.07
2022-09-26T16:29:36.012Z,3.80
2022-09-26T16:32:42.564Z,5.00
2022-09-26T16:35:51.889Z,3.73
2022-09-26T16:39:00.885Z,5.27
2022-09-26T16:42:17.450Z,4.53
2022-09-26T16:45:24.030Z,4.87
2022-09-26T16:48:41.979Z,4.33
2022-09-26T16:52:29.710Z,3.63
2022-09-26T16:55:37.930Z,3.93
2022-09-26T16:58:50.868Z,4.13
2022-09-26T17:01:58.244Z,3.70
2022-09-26T17:05:07.206Z,3.60
2022-09-26T17:08:16.433Z,3.80
2022-09-26T17:11:23.162Z,4.43
2022-09-26T17:14:36.742Z,4.20
2022-09-26T17:17:46.836Z,4.20
2022-09-26T17:20:52.917Z,3.73
2022-09-26T17:24:06.358Z,5.23
2022-09-26T17:27:18.219Z,5.10
2022-09-26T17:30:25.165Z,4.93
2022-09-26T17:33:32.576Z,5.40
2022-09-26T17:36:39.488Z,4.87
2022-09-26T17:39:47.915Z,5.40
2022-09-26T17:42:55.825Z,4.97
2022-09-26T17:46:06.902Z,4.90
2022-09-26T17:49:17.867Z,5.10
2022-09-26T17:52:29.148Z,5.00
2022-09-26T17:55:38.853Z,5.13
2022-09-26T17:58:47.298Z,5.07
2022-09-26T18:02:00.446Z,4.93
2022-09-26T18:05:19.076Z,5.20
2022-09-26T18:08:28.878Z,5.63
2022-09-26T18:11:38.229Z,4.77
2022-09-26T18:14:46.499Z,5.30
2022-09-26T18:17:52.782Z,5.30
2022-09-26T18:21:04.092Z,5.70
2022-09-26T18:24:19.460Z,5.83
2022-09-26T18:27:29.592Z,7.33
2022-09-26T18:30:35.458Z,7.73
2022-09-26T18:33:42.475Z,6.77
2022-09-26T18:36:51.761Z,6.73
2022-09-26T18:40:03.631Z,7.10
2022-09-26T18:43:14.427Z,6.53
2022-09-26T18:46:22.984Z,6.60
2022-09-26T18:49:29.433Z,6.63
2022-09-26T18:52:36.235Z,6.53
2022-09-26T18:56:12.259Z,6.90
2022-09-26T18:59:23.588Z,8.03
2022-09-26T19:02:40.749Z,7.20
2022-09-26T19:05:47.514Z,7.07
2022-09-26T19:08:59.339Z,7.30
2022-09-26T19:12:08.392Z,7.60
2022-09-26T19:15:20.602Z,8.87
2022-09-26T19:18:27.743Z,10.27
2022-09-26T19:21:37.305Z,10.23
2022-09-26T19:24:46.719Z,10.23
2022-09-26T19:27:54.576Z,10.70
2022-09-26T19:31:06.442Z,9.83
2022-09-26T19:34:17.154Z,9.90
2022-09-26T19:37:23.924Z,9.87
2022-09-26T19:40:30.873Z,10.10
2022-09-26T19:43:38.141Z,9.77
2022-09-26T19:46:49.119Z,10.90
2022-09-26T19:49:55.948Z,10.07
2022-09-26T19:53:04.637Z,10.33
2022-09-26T19:56:11.977Z,9.87
2022-09-26T19:59:18.200Z,10.33
2022-09-26T20:02:34.460Z,11.10
2022-09-26T20:05:40.260Z,10.63
2022-09-26T20:08:47.401Z,11.33
2022-09-26T20:11:53.417Z,9.97
2022-09-26T20:14:59.933Z,10.50
2022-09-26T20:18:15.581Z,10.50
2022-09-26T20:21:24.882Z,10.13
2022-09-26T20:24:31.540Z,10.03
2022-09-26T20:27:38.235Z,10.30
2022-09-26T20:30:56.914Z,9.93
2022-09-26T20:34:06.398Z,9.87
2022-09-26T20:37:14.241Z,10.00
2022-09-26T20:40:24.473Z,10.57
2022-09-26T20:43:35.128Z,9.60
2022-09-26T20:46:52.509Z,9.63
2022-09-26T20:50:06.265Z,9.53
2022-09-26T20:53:19.561Z,9.30
2022-09-26T20:56:25.582Z,9.40
2022-09-26T20:59:35.143Z,9.50
2022-09-26T21:02:42.315Z,9.97
2022-09-26T21:05:51.652Z,10.23
2022-09-26T21:08:57.608Z,10.97
2022-09-26T21:12:06.253Z,9.97
2022-09-26T21:15:15.331Z,9.73
2022-09-26T21:18:27.151Z,10.00
2022-09-26T21:21:35.571Z,10.47
2022-09-26T21:24:58.089Z,10.90
2022-09-26T21:28:09.359Z,10.67
2022-09-26T21:31:23.967Z,11.03
2022-09-26T21:34:31.126Z,10.40
2022-09-26T21:37:40.620Z,11.73
2022-09-26T21:40:48.046Z,10.67
2022-09-26T21:44:03.322Z,11.63
2022-09-26T21:47:09.118Z,11.40
2022-09-26T21:50:20.465Z,10.30
2022-09-26T21:53:34.818Z,10.33
2022-09-26T21:56:50.601Z,10.00
2022-09-26T21:59:56.803Z,9.87
2022-09-26T22:03:04.020Z,9.30
2022-09-26T22:06:12.640Z,9.90
2022-09-26T22:09:26.107Z,11.00
2022-09-26T22:12:31.796Z,10.17
2022-09-26T22:15:38.415Z,10.83
2022-09-26T22:18:44.683Z,10.37
2022-09-26T22:21:51.288Z,10.23
2022-09-26T22:25:04.090Z,9.93
2022-09-26T22:28:10.943Z,9.23
2022-09-26T22:31:16.730Z,8.93
2022-09-26T22:34:23.637Z,8.87
2022-09-26T22:37:29.407Z,7.97
2022-09-26T22:40:38.810Z,8.00
2022-09-26T22:43:44.683Z,8.63
2022-09-26T22:46:51.203Z,7.83
2022-09-26T22:49:56.886Z,9.20
2022-09-26T22:53:03.472Z,7.87
2022-09-26T22:56:15.164Z,7.80
2022-09-26T22:59:21.868Z,7.73
2022-09-26T23:02:27.625Z,7.17
2022-09-26T23:05:34.170Z,7.57
2022-09-26T23:08:40.491Z,7.00
2022-09-26T23:11:49.892Z,7.00
2022-09-26T23:14:55.662Z,7.60
2022-09-26T23:18:02.851Z,7.10
2022-09-26T23:21:10.250Z,7.57
2022-09-26T23:24:17.264Z,7.40
2022-09-26T23:27:26.441Z,7.77
2022-09-26T23:30:33.480Z,7.23
2022-09-26T23:33:39.471Z,6.93
2022-09-26T23:36:46.953Z,7.83
2022-09-26T23:39:52.904Z,7.93
2022-09-26T23:43:02.819Z,7.17
2022-09-26T23:46:09.692Z,8.27
2022-09-26T23:49:16.330Z,7.50
2022-09-26T23:52:22.173Z,7.83
2022-09-26T23:55:28.757Z,8.63
2022-09-26T23:58:37.357Z,8.10
